Latest Coastal Weather Observations for Devonport Airport

IDT60701

Issued at 8:42 pm EST Sunday 16 June 2019 (issued every 10 minutes, with the page automatically refreshed every 10 minutes)

About coastal observations | Map of coastal stations | Coastal observations for TAS | Marine services | Other Formats
Station Details ID: 091126 Name: DEVONPORT AIRPORT Lat: -41.17 Lon: 146.43 Height: 8.0 m
Data from the previous 72 hours. | See also: Recent months at Devonport Airport
Date/Time
EST
Wind Sea
Height
m
Swell Vis
km
Cloud Weather Temp
°C
Press
hPa
Rain since
9am
mm
Dir  Spd
kts
Gust
kts
Height
m
Period
s
Dir
16/08:30pm SSE 7 8 - - - - 10 Clear - 5.8 1022.3 0.0
16/08:00pm SSE 7 7 - - - - 10 - - 5.6 1022.3 0.0
16/07:30pm SSE 6 7 - - - - 10 - - 5.7 1022.1 0.0
16/07:00pm SSE 6 7 - - - - 10 - - 5.8 1021.9 0.0
16/06:30pm S 4 6 - - - - 10 - - 6.1 1021.7 0.0
16/06:00pm WSW 3 4 - - - - 10 - - 7.0 1021.6 0.0
16/05:30pm WNW 4 5 - - - - 10 - - 8.2 1021.5 0.0
16/05:00pm NW 3 5 - - - - 10 - - 9.7 1021.5 0.0
16/04:30pm NNW 4 6 - - - - 10 - - 10.9 1021.3 0.0
16/04:00pm NNW 4 6 - - - - 10 - - 11.7 1021.3 0.0
16/03:30pm N 5 7 - - - - 10 - - 11.7 1021.3 0.0
16/03:00pm N 6 6 - - - - 10 Mostly clear - 12.0 1021.2 0.0
16/02:30pm N 5 6 - - - - 10 - - 12.2 1021.2 0.0
16/02:00pm N 5 6 - - - - 10 - - 12.5 1021.3 0.0
16/01:30pm NNW 4 5 - - - - 10 - - 12.8 1021.4 0.0
16/01:00pm NW 4 6 - - - - 10 - - 12.6 1021.5 0.0
16/12:30pm NNE 2 6 - - - - 10 Partly cloudy - 12.6 1021.8 0.0
16/12:00pm S 1 3 - - - - 10 Mostly cloudy - 11.8 1022.3 0.0
16/11:30am S 6 8 - - - - 10 Partly cloudy - 10.7 1022.5 0.0
16/11:00am S 6 7 - - - - 10 Partly cloudy - 9.8 1022.9 0.0
16/10:30am SSW 7 9 - - - - 10 Partly cloudy - 8.1 1023.1 0.0
16/10:00am S 6 8 - - - - 10 Partly cloudy - 7.7 1023.0 0.0
16/09:30am SSW 7 9 - - - - 10 Cloudy - 6.8 1022.7 0.0
16/09:00am S 7 9 - - - - 10 Cloudy - 5.7 1022.6 0.0
16/08:30am S 7 9 - - - - 10 Partly cloudy - 5.0 1022.5 0.0
16/08:00am SSW 6 8 - - - - 10 Partly cloudy - 4.7 1022.3 0.0
16/07:30am S 8 10 - - - - 10 - - 4.7 1022.0 0.0
16/07:00am SSE 10 12 - - - - 10 Partly cloudy - 5.6 1021.7 0.0
16/06:30am S 9 10 - - - - 10 Partly cloudy - 4.5 1021.5 0.0
16/06:00am S 8 10 - - - - 10 Mostly cloudy - 4.1 1021.4 0.0
16/05:30am S 8 10 - - - - 10 - - 4.1 1021.1 0.0
16/05:00am S 7 9 - - - - 10 Partly cloudy - 4.1 1021.0 0.0
16/04:30am S 8 10 - - - - 10 - - 4.0 1020.9 0.0
16/04:00am S 9 11 - - - - 10 Partly cloudy - 4.0 1021.1 0.0
16/03:30am S 9 11 - - - - 10 Partly cloudy - 4.3 1021.1 0.0
16/03:00am S 7 10 - - - - 10 - - 4.7 1021.2 0.0
16/02:30am S 8 10 - - - - 10 Partly cloudy - 5.4 1021.0 0.0
16/02:00am S 9 10 - - - - 10 Cloudy - 5.5 1021.1 0.0
16/01:30am S 8 9 - - - - 10 Cloudy - 5.6 1021.0 0.0
16/01:00am S 6 7 - - - - 10 Partly cloudy - 5.2 1021.0 0.0
16/12:30am S 8 9 - - - - 10 - - 4.9 1020.9 0.0
16/12:00am S 9 10 - - - - 10 - - 5.0 1021.0 0.0
 
Date/Time
EST
Wind Sea
Height
m
Swell Vis
km
Cloud Weather Temp
°C
Press
hPa
Rain since
9am
mm
Dir  Spd
kts
Gust
kts
Height
m
Period
s
Dir
15/11:30pm S 7 8 - - - - 10 - - 5.0 1021.0 0.0
15/11:00pm S 7 8 - - - - 10 - - 5.2 1021.1 0.0
15/10:30pm SSE 6 7 - - - - 10 - - 5.4 1021.0 0.0
15/10:00pm S 7 8 - - - - 10 - - 5.4 1021.3 0.0
15/09:30pm S 6 6 - - - - 10 Partly cloudy - 5.9 1021.3 0.0
15/09:00pm S 5 6 - - - - 10 Partly cloudy - 5.6 1021.3 0.0
15/08:30pm SSW 3 4 - - - - 10 Partly cloudy - 5.8 1021.1 0.0
15/08:00pm SSW 4 5 - - - - 10 - - 6.7 1021.0 0.0
15/07:30pm WSW 5 6 - - - - 10 - - 7.5 1020.8 0.0
15/07:00pm WSW 6 7 - - - - 10 Partly cloudy - 9.1 1020.5 0.0
15/06:30pm W 6 7 - - - - 10 - - 9.3 1020.1 0.0
15/06:00pm WSW 7 9 - - - - 10 - - 9.6 1019.9 0.0
15/05:30pm WNW 9 11 - - - - 10 - - 11.2 1019.6 0.0
15/05:00pm WNW 11 13 - - - - 10 Partly cloudy - 11.7 1019.2 0.0
15/04:30pm WNW 12 15 - - - - 10 Partly cloudy - 12.1 1019.0 0.0
15/04:00pm WNW 12 14 - - - - 10 Cloudy - 12.4 1018.8 0.0
15/03:30pm NW 11 13 - - - - 10 Cloudy - 12.6 1018.7 0.0
15/03:00pm NW 11 13 - - - - 10 Cloudy - 12.8 1018.5 0.0
15/02:30pm NW 11 14 - - - - 10 Partly cloudy - 13.2 1018.4 0.0
15/02:00pm NW 9 11 - - - - 10 Partly cloudy - 13.0 1018.4 0.0
15/01:30pm NW 8 10 - - - - 10 Partly cloudy - 12.9 1018.5 0.0
15/01:00pm NNW 9 11 - - - - 10 - - 12.6 1018.5 0.0
15/12:30pm SSW 5 7 - - - - 10 - - 13.4 1018.6 0.0
15/12:00pm SW 7 9 - - - - 10 - - 12.9 1018.8 0.0
15/11:30am SSW 7 9 - - - - 10 - - 12.5 1019.0 0.0
15/11:00am SSW 7 9 - - - - 10 - - 12.1 1019.3 0.0
15/10:30am SSW 7 10 - - - - 10 - - 11.0 1019.5 0.0
15/10:00am SSW 5 7 - - - - 10 - - 9.8 1019.3 0.0
15/09:30am SSW 6 7 - - - - 10 - - 8.4 1019.2 0.0
15/09:00am SSE 5 6 - - - - 10 - - 7.4 1018.9 0.0
15/08:30am S 4 5 - - - - 10 - - 5.1 1018.7 0.0
15/08:00am WSW 5 6 - - - - 10 - - 4.3 1018.2 0.0
15/07:30am W 5 6 - - - - 10 - - 4.6 1017.8 0.0
15/07:00am S 3 3 - - - - 10 - - 5.5 1017.5 0.0
15/06:30am WSW 7 8 - - - - 10 - - 5.8 1017.0 0.0
15/06:00am WSW 5 7 - - - - 10 - - 6.6 1016.5 0.0
15/05:30am SW 4 5 - - - - 10 Partly cloudy - 5.6 1016.0 0.0
15/05:00am S 5 6 - - - - 10 Cloudy - 6.4 1015.7 0.0
15/04:30am S 4 5 - - - - 10 Partly cloudy - 6.1 1015.6 0.0
15/04:00am SSW 5 6 - - - - 10 Partly cloudy - 6.8 1015.4 0.0
15/03:30am W 9 11 - - - - 10 Cloudy - 8.5 1015.3 0.0
15/03:00am WNW 11 14 - - - - 10 Partly cloudy - 9.6 1015.1 0.0
15/02:30am WNW 11 14 - - - - 10 - - 9.5 1015.0 0.0
15/02:00am W 8 9 - - - - 10 Partly cloudy - 7.2 1015.0 0.0
15/01:30am W 10 11 - - - - 10 Partly cloudy - 8.1 1014.8 0.0
15/01:00am W 9 11 - - - - 10 - - 8.6 1014.5 0.0
15/12:30am WNW 9 11 - - - - 10 - - 9.0 1014.6 0.0
15/12:00am W 10 13 - - - - 10 - - 9.1 1014.6 0.0
 
Date/Time
EST
Wind Sea
Height
m
Swell Vis
km
Cloud Weather Temp
°C
Press
hPa
Rain since
9am
mm
Dir  Spd
kts
Gust
kts
Height
m
Period
s
Dir
14/11:30pm W 12 15 - - - - 10 - - 10.0 1014.5 0.0
14/11:00pm W 9 10 - - - - 10 - - 9.1 1014.3 0.0
14/10:30pm W 11 14 - - - - 10 - - 9.9 1014.0 0.0
14/10:00pm W 13 16 - - - - 10 - - 10.3 1013.8 0.0
14/09:30pm WNW 14 17 - - - - 10 - - 11.0 1013.9 0.0
14/09:00pm WNW 15 19 - - - - 10 - - 11.2 1013.6 0.0
14/08:30pm WNW 13 16 - - - - 10 - - 11.2 1013.7 0.0
14/08:00pm WNW 13 16 - - - - 10 - - 11.2 1013.4 0.0
14/07:30pm W 13 18 - - - - 10 - - 11.1 1013.2 0.0
14/07:00pm WNW 15 18 - - - - 10 - - 11.2 1012.9 0.0
14/06:30pm WNW 14 18 - - - - 10 - - 11.2 1012.5 0.0
14/06:00pm W 15 19 - - - - 10 - - 11.4 1012.2 0.0
14/05:30pm W 12 19 - - - - 10 Partly cloudy - 11.3 1012.0 0.0
14/05:00pm W 14 19 - - - - 10 Partly cloudy - 11.6 1011.8 0.0
14/04:30pm WSW 9 11 - - - - 10 Partly cloudy - 11.4 1011.8 0.0
14/04:00pm WNW 16 20 - - - - 10 Partly cloudy - 12.9 1011.4 0.0
14/03:30pm WNW 16 19 - - - - 10 Partly cloudy - 13.6 1011.3 0.0
14/03:00pm WNW 18 22 - - - - 10 Mostly clear - 12.9 1011.2 0.0
14/02:30pm NW 17 20 - - - - 10 Partly cloudy - 13.3 1010.9 0.0
14/02:00pm NW 15 20 - - - - 10 Partly cloudy - 13.3 1011.1 0.0
14/01:30pm NW 14 17 - - - - 10 - - 13.1 1011.4 0.0
14/01:00pm WNW 18 24 - - - - 10 Partly cloudy - 12.4 1011.5 0.0
14/12:30pm WNW 17 21 - - - - 10 Partly cloudy - 13.4 1011.9 0.0
14/12:00pm WNW 17 21 - - - - 10 Cloudy Showers 12.3 1012.2 0.0
14/11:30am WNW 16 21 - - - - 10 Partly cloudy - 12.1 1012.6 0.0
14/11:00am WNW 13 15 - - - - 10 Partly cloudy - 12.6 1012.9 0.0
14/10:30am WNW 12 16 - - - - 10 Partly cloudy - 12.1 1013.3 0.0
14/10:00am WNW 13 16 - - - - 10 Partly cloudy - 11.2 1013.4 0.0
14/09:30am WNW 13 17 - - - - 10 Partly cloudy - 11.6 1013.3 0.0
14/09:00am WNW 11 15 - - - - 10 Cloudy - 11.3 1013.4 6.4
14/08:30am WNW 10 13 - - - - 10 Partly cloudy - 10.2 1013.3 6.4
14/08:00am WNW 13 18 - - - - 10 Partly cloudy - 9.8 1013.0 6.4
14/07:30am W 12 16 - - - - 10 Partly cloudy - 9.8 1012.9 6.4
14/07:00am WNW 13 17 - - - - 10 Partly cloudy - 9.7 1012.9 6.4
14/06:30am WSW 6 11 - - - - 10 Partly cloudy - 8.1 1012.7 6.4
14/06:00am SW 4 6 - - - - 10 Mostly cloudy - 7.8 1012.6 6.4
14/05:30am SSW 3 4 - - - - 10 - - 5.1 1012.5 6.4
14/05:00am SSW 2 3 - - - - 10 Partly cloudy - 6.6 1012.4 6.4
14/04:30am W 3 6 - - - - 10 - - 6.3 1012.3 6.4
14/04:00am WNW 3 4 - - - - 10 - - 6.4 1012.3 6.4
14/03:30am W 6 7 - - - - 10 - - 6.5 1012.2 6.4
14/03:00am WSW 6 7 - - - - 10 - - 7.2 1012.3 6.4
14/02:30am W 8 10 - - - - 10 - - 7.5 1012.1 6.4
14/02:00am WNW 9 11 - - - - 10 - - 7.8 1012.0 6.4
14/01:30am SW 6 7 - - - - 10 - - 7.8 1012.1 6.4
14/01:00am W 11 15 - - - - 10 - - 8.5 1011.9 6.4
14/12:30am WNW 12 17 - - - - 10 - - 9.2 1011.9 6.4
14/12:00am W 11 14 - - - - 10 - - 8.7 1012.0 6.4
 
Date/Time
EST
Wind Sea
Height
m
Swell Vis
km
Cloud Weather Temp
°C
Press
hPa
Rain since
9am
mm
Dir  Spd
kts
Gust
kts
Height
m
Period
s
Dir
13/11:30pm W 11 14 - - - - 10 Partly cloudy - 9.0 1012.2 6.4
13/11:00pm W 11 15 - - - - 10 Partly cloudy - 8.5 1012.2 6.4
13/10:30pm W 8 11 - - - - 10 - - 8.1 1012.2 6.4
13/10:00pm W 9 14 - - - - 10 - - 8.4 1012.0 6.4
13/09:30pm W 10 11 - - - - 10 - - 8.2 1011.8 6.4
13/09:00pm W 12 14 - - - - 10 - - 9.1 1011.8 6.4

Other formats

Comma delimited format used in spreadsheet applications
http://www.bom.gov.au/fwo/IDT60701/IDT60701.95960.axf

JavaScript Object Notation format (JSON) in row-major order
http://www.bom.gov.au/fwo/IDT60701/IDT60701.95960.json

Data quality

Most of these data are generated automatically and are frequently updated. Quality checks on data are not normally performed. It is possible for incorrect values to appear. Refer to information at About Latest Weather Observations and please check the disclaimer before using these data.